Time;durP1;ratioP1;P1;durP2;ratioP2;P2;SDS_P1;SDS_P2;PMS_P1;PMS_P2;Temp;Humidity;BMP_temperature;BMP_pressure;BME280_temperature;BME280_humidity;BME280_pressure;Samples;Min_cycle;Max_cycle;Signal;HPM_P1;HPM_P2
2021/08/27 00:02:17;;;;;;;4.97;1.90;;;;;;;13.37;75.30;99625.47;2066159;83;30049;-62
2021/08/27 00:05:18;;;;;;;9.38;1.85;;;;;;;13.36;75.27;99625.09;2128096;83;27719;-62
2021/08/27 00:08:20;;;;;;;4.97;1.67;;;;;;;13.35;75.32;99626.56;2128078;83;29106;-63
2021/08/27 00:11:22;;;;;;;2.05;1.80;;;;;;;13.36;75.39;99630.47;2127833;83;31755;-66
2021/08/27 00:14:25;;;;;;;3.55;2.10;;;;;;;13.34;75.42;99625.68;2127733;81;33830;-65
2021/08/27 00:17:32;;;;;;;4.65;1.82;;;;;;;13.34;75.42;99629.72;2125748;83;29973;-63
2021/08/27 00:20:31;;;;;;;3.08;1.90;;;;;;;13.34;75.39;99636.44;2057388;85;27686;-66
2021/08/27 00:23:33;;;;;;;4.62;2.15;;;;;;;13.35;75.36;99636.82;2077140;84;29214;-62
2021/08/27 00:26:35;;;;;;;3.87;2.02;;;;;;;13.36;75.51;99640.39;2086381;84;32342;-65
2021/08/27 00:29:37;;;;;;;3.65;1.87;;;;;;;13.35;75.36;99640.86;2122312;83;34294;-63
2021/08/27 00:32:39;;;;;;;4.12;2.20;;;;;;;13.34;75.47;99640.48;2122565;83;30286;-63
2021/08/27 00:35:41;;;;;;;5.62;2.08;;;;;;;13.35;75.58;99643.55;2126542;83;27716;-63
2021/08/27 00:38:44;;;;;;;4.42;1.87;;;;;;;13.36;75.59;99645.77;2126680;83;29882;-66
2021/08/27 00:41:46;;;;;;;4.87;2.10;;;;;;;13.36;75.56;99638.55;2126999;83;31136;-65
2021/08/27 00:44:48;;;;;;;4.22;1.80;;;;;;;13.36;75.51;99635.85;2122510;83;33034;-66
2021/08/27 00:47:50;;;;;;;4.25;1.60;;;;;;;13.37;75.58;99641.61;2122209;83;30220;-66
2021/08/27 00:50:53;;;;;;;3.52;2.08;;;;;;;13.37;75.60;99641.61;2122489;83;27696;-66
2021/08/27 00:53:55;;;;;;;3.02;2.02;;;;;;;13.38;75.61;99652.75;2145806;82;29016;-65
2021/08/27 00:56:57;;;;;;;2.75;1.92;;;;;;;13.39;75.58;99646.90;2163644;81;32029;-64
2021/08/27 00:59:59;;;;;;;2.27;1.67;;;;;;;13.40;75.57;99652.69;2164134;80;34100;-64
2021/08/27 01:03:02;;;;;;;4.00;1.82;;;;;;;13.40;75.54;99644.62;2163825;82;29807;-65
2021/08/27 01:06:26;;;;;;;3.00;1.87;;;;;;;13.40;75.65;99647.30;2125757;80;27692;-64
2021/08/27 01:09:49;;;;;;;4.03;2.47;;;;;;;13.41;75.52;99648.16;2114023;84;29689;-66
2021/08/27 01:13:21;;;;;;;4.20;2.30;;;;;;;13.39;75.51;99646.90;2113333;84;31813;-60
2021/08/27 01:16:28;;;;;;;4.87;2.70;;;;;;;13.41;75.65;99646.80;2081025;85;33066;-64
2021/08/27 01:19:44;;;;;;;7.25;2.50;;;;;;;13.39;75.52;99653.62;2078434;85;29063;-61
2021/08/27 01:23:14;;;;;;;3.62;2.30;;;;;;;13.38;75.43;99647.37;2078277;85;27684;-60
2021/08/27 01:26:20;;;;;;;4.37;2.65;;;;;;;13.35;75.39;99657.00;2145485;82;29201;-63
2021/08/27 01:29:50;;;;;;;4.28;2.33;;;;;;;13.36;75.58;99659.22;2164273;81;31837;-62
2021/08/27 01:33:06;;;;;;;6.03;2.20;;;;;;;13.35;75.58;99660.19;2162162;81;33349;-62
2021/08/27 01:36:08;;;;;;;6.55;2.50;;;;;;;13.35;75.56;99662.38;2163750;81;29221;-64
2021/08/27 01:39:13;;;;;;;6.10;2.50;;;;;;;13.32;75.57;99665.28;2164005;81;27599;-63
2021/08/27 01:42:21;;;;;;;3.62;2.72;;;;;;;13.32;75.59;99661.25;2164247;82;29870;-63
2021/08/27 01:45:22;;;;;;;6.37;2.20;;;;;;;13.32;75.67;99662.59;2124532;80;31879;-65
2021/08/27 01:48:27;;;;;;;5.53;2.45;;;;;;;13.34;75.58;99661.16;2122576;83;35090;-63
2021/08/27 01:51:30;;;;;;;6.08;2.62;;;;;;;13.33;75.64;99661.62;2123090;83;34694;-65
2021/08/27 01:54:36;;;;;;;5.20;2.72;;;;;;;13.34;75.67;99657.12;2122864;82;27729;-64
2021/08/27 01:57:39;;;;;;;6.35;2.58;;;;;;;13.34;75.83;99656.63;2123839;83;29743;-65
2021/08/27 02:00:42;;;;;;;7.10;2.65;;;;;;;13.36;75.94;99657.37;2105966;83;31036;-66
2021/08/27 02:03:45;;;;;;;5.45;2.62;;;;;;;13.37;75.87;99659.59;2128138;83;33794;-65
2021/08/27 02:06:48;;;;;;;7.30;2.77;;;;;;;13.38;76.02;99647.37;2128417;83;29025;-64
2021/08/27 02:09:56;;;;;;;4.50;2.87;;;;;;;13.40;76.05;99655.81;2114574;83;27730;-64
2021/08/27 02:12:59;;;;;;;4.20;2.27;;;;;;;13.39;76.04;99649.59;2128113;83;30041;-61
2021/08/27 02:16:03;;;;;;;3.65;2.52;;;;;;;13.41;76.15;99651.69;2128025;83;32080;-61
2021/08/27 02:19:04;;;;;;;3.67;2.58;;;;;;;13.39;76.11;99644.20;2105347;83;32979;-61
2021/08/27 02:22:11;;;;;;;5.10;2.60;;;;;;;13.38;76.12;99650.05;2118853;83;30133;-60
2021/08/27 02:25:19;;;;;;;5.95;2.67;;;;;;;13.36;75.99;99645.77;2106221;83;27721;-62
2021/08/27 02:28:23;;;;;;;2.90;2.20;;;;;;;13.32;76.09;99637.53;2124899;83;28648;-61
2021/08/27 02:31:26;;;;;;;3.62;2.47;;;;;;;13.29;75.96;99642.66;2128230;83;31848;-61
2021/08/27 02:34:29;;;;;;;5.20;2.50;;;;;;;13.27;76.10;99632.96;2128334;83;34266;-61
2021/08/27 02:37:34;;;;;;;4.92;2.80;;;;;;;13.25;76.19;99635.77;2128362;83;29068;-61
2021/08/27 02:40:35;;;;;;;3.35;2.40;;;;;;;13.22;76.17;99631.95;2083593;85;27811;-64
2021/08/27 02:43:38;;;;;;;6.40;2.50;;;;;;;13.19;76.15;99633.05;2139677;83;29850;-61
2021/08/27 02:46:40;;;;;;;4.92;2.90;;;;;;;13.15;76.11;99630.69;2140379;83;32271;-65
2021/08/27 02:49:42;;;;;;;5.55;3.25;;;;;;;13.13;76.27;99631.28;2140344;83;33862;-62
2021/08/27 02:52:58;;;;;;;7.35;3.30;;;;;;;13.11;76.25;99631.88;2120539;81;29978;-62
2021/08/27 02:56:04;;;;;;;5.20;3.25;;;;;;;13.06;76.23;99634.89;2054532;85;27684;-61
2021/08/27 02:59:11;;;;;;;8.93;3.25;;;;;;;13.02;76.32;99635.57;2075937;85;28685;-61
2021/08/27 03:02:16;;;;;;;8.00;3.55;;;;;;;12.99;76.28;99637.13;2086228;83;31412;-61
2021/08/27 03:05:23;;;;;;;8.20;3.37;;;;;;;12.97;76.43;99638.21;2126457;83;34184;-60
2021/08/27 03:08:25;;;;;;;4.65;3.37;;;;;;;12.94;76.47;99635.27;2128364;83;29031;-60
2021/08/27 03:11:34;;;;;;;5.33;3.22;;;;;;;12.90;76.41;99636.44;2128281;83;27642;-62
2021/08/27 03:14:44;;;;;;;5.97;2.87;;;;;;;12.86;76.51;99649.25;2096092;83;29587;-64
2021/08/27 03:17:46;;;;;;;11.73;4.10;;;;;;;12.85;76.64;99650.68;2084669;85;32282;-63
2021/08/27 03:20:54;;;;;;;5.12;3.40;;;;;;;12.81;76.53;99653.23;2084937;85;33979;-64
2021/08/27 03:24:04;;;;;;;6.45;3.27;;;;;;;12.79;76.74;99652.47;2105806;83;29049;-64
2021/08/27 03:27:11;;;;;;;7.90;3.70;;;;;;;12.78;76.87;99664.19;2127172;83;28111;-65
2021/08/27 03:30:21;;;;;;;6.28;3.33;;;;;;;12.79;77.03;99668.59;2127175;83;29429;-62
2021/08/27 03:33:25;;;;;;;8.88;3.42;;;;;;;12.80;77.12;99660.41;2128075;83;31559;-62
2021/08/27 03:36:30;;;;;;;8.20;3.30;;;;;;;12.82;77.16;99657.14;2096767;83;32976;-63
2021/08/27 03:39:32;;;;;;;8.13;3.22;;;;;;;12.82;77.16;99659.83;2085423;85;29027;-65
2021/08/27 03:42:36;;;;;;;5.30;3.27;;;;;;;12.84;77.22;99659.70;2085079;85;27615;-65
2021/08/27 03:45:38;;;;;;;3.40;2.80;;;;;;;12.87;77.32;99659.03;2085217;85;28492;-65
2021/08/27 03:48:40;;;;;;;4.45;3.10;;;;;;;12.89;77.19;99665.64;2113163;83;32243;-63
2021/08/27 03:51:45;;;;;;;5.90;2.98;;;;;;;12.91;77.30;99661.86;2128416;83;33334;-64
2021/08/27 03:54:47;;;;;;;3.45;2.77;;;;;;;12.94;77.29;99663.97;2137839;82;30249;-62
2021/08/27 03:57:50;;;;;;;4.30;2.72;;;;;;;12.96;77.32;99662.03;2131720;83;27670;-66
2021/08/27 04:00:54;;;;;;;5.42;3.10;;;;;;;12.98;77.32;99664.13;2128233;83;28669;-64
2021/08/27 04:03:56;;;;;;;6.22;3.08;;;;;;;13.00;77.36;99664.39;2082950;83;31028;-64
2021/08/27 04:07:03;;;;;;;5.50;3.40;;;;;;;13.02;77.24;99656.23;2127473;83;33323;-64
2021/08/27 04:10:07;;;;;;;3.52;3.22;;;;;;;13.03;77.23;99657.95;2100235;81;30140;-64
2021/08/27 04:13:10;;;;;;;4.13;3.73;;;;;;;13.06;77.38;99662.62;2127523;83;27581;-65
2021/08/27 04:16:12;;;;;;;8.85;3.80;;;;;;;13.09;77.35;99666.08;2127809;83;29915;-63
2021/08/27 04:19:14;;;;;;;5.53;3.83;;;;;;;13.12;77.42;99668.55;2108011;83;31619;-63
2021/08/27 04:22:16;;;;;;;6.42;3.58;;;;;;;13.15;77.54;99666.50;2100683;84;33039;-63
2021/08/27 04:25:18;;;;;;;4.85;3.98;;;;;;;13.20;77.46;99669.73;2127561;83;29834;-63
2021/08/27 04:28:20;;;;;;;6.15;4.58;;;;;;;13.25;77.40;99669.39;2119680;83;27718;-63
2021/08/27 04:31:22;;;;;;;6.15;3.90;;;;;;;13.31;77.38;99672.13;2091756;84;29699;-61
2021/08/27 04:34:25;;;;;;;4.42;3.33;;;;;;;13.36;77.31;99676.20;2036670;86;31924;-63
2021/08/27 04:37:28;;;;;;;8.03;4.08;;;;;;;13.43;77.27;99678.50;2077721;84;32799;-61
2021/08/27 04:40:30;;;;;;;4.70;3.70;;;;;;;13.50;77.09;99684.68;2136951;83;29115;-63
2021/08/27 04:43:32;;;;;;;6.35;3.90;;;;;;;13.56;77.11;99679.33;2122063;83;27604;-64
2021/08/27 04:46:34;;;;;;;8.68;4.20;;;;;;;13.67;76.97;99685.29;2062073;85;28725;-64
2021/08/27 04:49:36;;;;;;;8.18;4.42;;;;;;;13.77;76.98;99686.83;2125582;82;32314;-61
2021/08/27 04:52:38;;;;;;;4.35;3.62;;;;;;;13.89;76.99;99686.42;2127246;82;34103;-61
2021/08/27 04:55:40;;;;;;;6.12;5.00;;;;;;;14.00;76.88;99690.52;2100256;84;29003;-60
2021/08/27 04:58:42;;;;;;;6.87;4.47;;;;;;;14.11;76.61;99686.53;2100452;84;27598;-60
2021/08/27 05:01:44;;;;;;;6.92;4.97;;;;;;;14.27;76.68;99682.69;2100352;84;29127;-60
2021/08/27 05:04:46;;;;;;;8.78;5.37;;;;;;;14.41;76.37;99687.05;2099937;84;31420;-60
2021/08/27 05:07:48;;;;;;;6.37;4.65;;;;;;;14.54;76.29;99687.83;2100235;84;33756;-60
2021/08/27 05:10:51;;;;;;;7.65;4.65;;;;;;;14.68;76.15;99688.16;2100456;83;29412;-60
2021/08/27 05:13:53;;;;;;;8.63;4.65;;;;;;;14.77;75.63;99687.95;2100792;84;27559;-60
2021/08/27 05:16:55;;;;;;;6.25;4.42;;;;;;;14.82;75.23;99694.33;2094127;84;29578;-60
2021/08/27 05:19:59;;;;;;;7.20;3.70;;;;;;;14.88;75.57;99690.66;2099989;84;30939;-61
2021/08/27 05:23:02;;;;;;;4.83;3.33;;;;;;;14.98;75.65;99691.27;2099719;84;33137;-61
2021/08/27 05:26:06;;;;;;;6.45;4.15;;;;;;;15.03;75.43;99690.44;2099625;84;29846;-60
2021/08/27 05:29:09;;;;;;;6.87;3.75;;;;;;;15.09;75.35;99694.02;2100483;84;27676;-61
2021/08/27 05:32:13;;;;;;;4.67;3.50;;;;;;;15.13;75.05;99693.27;2099815;84;28456;-60
2021/08/27 05:35:17;;;;;;;3.30;2.97;;;;;;;15.11;74.92;99692.53;2099950;84;31068;-63
2021/08/27 05:38:19;;;;;;;6.87;4.10;;;;;;;15.13;74.87;99699.55;2100316;84;33870;-62
2021/08/27 05:41:22;;;;;;;7.62;3.80;;;;;;;15.16;74.76;99697.93;2100253;84;29423;-61
2021/08/27 05:44:24;;;;;;;5.60;3.55;;;;;;;15.17;74.48;99698.30;2099844;84;27748;-60
2021/08/27 05:47:30;;;;;;;5.33;3.50;;;;;;;15.19;74.53;99697.69;2099788;84;28719;-60
2021/08/27 05:50:33;;;;;;;6.87;3.50;;;;;;;15.23;74.48;99700.16;2100256;84;31057;-61
2021/08/27 05:53:37;;;;;;;4.83;3.50;;;;;;;15.28;74.32;99696.61;2083929;85;33046;-60
2021/08/27 05:56:41;;;;;;;8.40;3.50;;;;;;;15.34;74.27;99702.85;2081244;85;29453;-60
2021/08/27 05:59:45;;;;;;;8.85;4.03;;;;;;;15.42;74.33;99698.19;2114714;83;27720;-60
2021/08/27 06:02:47;;;;;;;8.18;4.00;;;;;;;15.48;74.04;99708.01;2127874;82;28724;-61
2021/08/27 06:05:52;;;;;;;7.62;3.42;;;;;;;15.54;73.89;99706.69;2127853;83;31067;-60
2021/08/27 06:08:56;;;;;;;4.03;3.30;;;;;;;15.63;73.91;99711.84;2114334;83;32955;-60
2021/08/27 06:12:00;;;;;;;7.75;3.83;;;;;;;15.75;73.61;99709.97;2125498;83;28895;-60
2021/08/27 06:15:05;;;;;;;4.85;3.08;;;;;;;15.82;73.51;99699.05;2125251;83;27662;-62
2021/08/27 06:18:08;;;;;;;5.58;4.35;;;;;;;15.96;73.66;99703.36;2123205;82;28780;-61
2021/08/27 06:21:12;;;;;;;5.53;3.42;;;;;;;15.98;73.66;99674.86;2133081;80;31117;-60
2021/08/27 06:24:16;;;;;;;5.80;3.60;;;;;;;16.31;73.48;99706.31;2127890;83;33846;-60
2021/08/27 06:27:19;;;;;;;6.50;2.90;;;;;;;16.62;73.43;99706.46;2128228;83;29075;-61
2021/08/27 06:30:22;;;;;;;3.98;2.98;;;;;;;17.09;73.04;99707.44;2113849;83;27748;-60
2021/08/27 06:33:25;;;;;;;6.47;3.27;;;;;;;17.40;71.72;99709.33;2093523;84;28696;-60
2021/08/27 06:36:28;;;;;;;4.58;2.45;;;;;;;17.56;71.57;99706.98;2118515;83;31450;-64
2021/08/27 06:39:32;;;;;;;3.05;2.08;;;;;;;17.67;70.65;99707.86;2121730;83;33008;-60
2021/08/27 06:42:36;;;;;;;7.33;2.33;;;;;;;17.68;69.98;99707.75;2125203;83;29070;-60
2021/08/27 06:45:40;;;;;;;4.20;1.77;;;;;;;17.67;70.17;99711.45;2125767;83;27662;-60
2021/08/27 06:48:45;;;;;;;4.70;1.45;;;;;;;17.74;70.39;99716.66;2120088;83;29400;-60
2021/08/27 06:51:49;;;;;;;2.98;1.80;;;;;;;17.86;70.35;99717.93;2096310;84;31920;-60
2021/08/27 06:54:52;;;;;;;2.92;1.40;;;;;;;17.95;70.01;99719.80;2087528;84;33029;-60
2021/08/27 06:57:55;;;;;;;2.65;1.80;;;;;;;17.99;69.15;99723.11;2148503;81;29905;-60
2021/08/27 07:00:59;;;;;;;2.65;1.72;;;;;;;18.01;68.92;99724.71;2129571;81;27642;-60
2021/08/27 07:04:03;;;;;;;3.95;1.55;;;;;;;18.09;69.03;99718.59;2128530;83;28670;-64
2021/08/27 07:07:10;;;;;;;3.15;1.82;;;;;;;18.22;69.17;99730.03;2123710;83;31088;-60
2021/08/27 07:10:14;;;;;;;1.87;1.70;;;;;;;18.38;68.39;99723.20;2128184;83;32969;-60
2021/08/27 07:13:17;;;;;;;3.85;1.87;;;;;;;18.41;68.21;99721.56;2128099;83;29067;-60
2021/08/27 07:16:21;;;;;;;2.12;1.45;;;;;;;18.49;67.93;99726.28;2095422;82;27674;-60
2021/08/27 07:19:24;;;;;;;2.98;1.80;;;;;;;18.56;67.88;99724.70;2093228;84;28730;-61
2021/08/27 07:22:27;;;;;;;4.13;1.40;;;;;;;18.67;67.67;99727.77;2066743;85;31053;-61
2021/08/27 07:25:30;;;;;;;2.92;1.45;;;;;;;18.77;67.41;99726.42;2071889;85;33804;-61
2021/08/27 07:28:35;;;;;;;2.30;1.17;;;;;;;18.90;67.20;99726.13;2071892;85;29073;-61
2021/08/27 07:31:38;;;;;;;3.75;1.57;;;;;;;19.03;66.54;99722.64;2072046;85;27699;-61
2021/08/27 07:34:45;;;;;;;1.98;1.42;;;;;;;19.12;66.09;99731.25;2071588;85;28833;-62
2021/08/27 07:37:48;;;;;;;4.20;1.45;;;;;;;19.23;66.32;99734.83;2073380;82;31690;-60
2021/08/27 07:40:51;;;;;;;2.17;1.27;;;;;;;19.32;65.88;99740.72;2135799;82;33025;-64
2021/08/27 07:43:54;;;;;;;2.70;1.00;;;;;;;19.34;65.38;99734.64;2143917;83;29046;-61
2021/08/27 07:46:58;;;;;;;4.40;1.32;;;;;;;19.38;65.23;99741.50;2157220;81;27707;-61
2021/08/27 07:50:01;;;;;;;3.77;1.00;;;;;;;19.55;64.79;99735.78;2154655;81;28710;-63
2021/08/27 07:53:05;;;;;;;1.80;0.82;;;;;;;19.71;64.75;99741.97;2128086;83;31877;-64
2021/08/27 07:56:18;;;;;;;3.92;1.00;;;;;;;19.91;64.34;99741.91;2127688;83;32880;-61
2021/08/27 07:59:25;;;;;;;2.80;0.90;;;;;;;20.08;63.90;99740.23;2126122;83;29481;-63
2021/08/27 08:02:32;;;;;;;1.07;1.00;;;;;;;20.36;63.62;99739.35;2087434;85;27674;-60
2021/08/27 08:05:49;;;;;;;4.75;1.42;;;;;;;20.55;62.30;99738.34;2088091;84;28650;-60
2021/08/27 08:08:54;;;;;;;1.40;0.80;;;;;;;20.71;62.38;99741.22;2119582;83;27631;-60
2021/08/27 08:11:58;;;;;;;1.85;1.10;;;;;;;20.84;62.38;99737.31;2131363;83;33071;-60
2021/08/27 08:15:02;;;;;;;3.27;1.17;;;;;;;20.93;61.76;99741.27;2117060;83;29210;-60
2021/08/27 08:18:05;;;;;;;2.80;1.20;;;;;;;21.10;61.31;99740.04;2053203;86;27707;-60
2021/08/27 08:21:09;;;;;;;2.67;1.00;;;;;;;21.20;60.25;99741.30;2080836;85;28720;-60
2021/08/27 08:24:13;;;;;;;2.13;1.40;;;;;;;21.33;60.05;99737.68;2087952;85;31098;-60
2021/08/27 08:27:26;;;;;;;1.98;1.10;;;;;;;21.53;59.69;99740.16;2088250;85;32964;-60
2021/08/27 08:30:34;;;;;;;2.33;1.25;;;;;;;21.63;59.30;99738.22;2090839;84;29398;-61
2021/08/27 08:33:41;;;;;;;2.62;1.50;;;;;;;21.65;58.98;99742.14;2113434;83;27689;-61
2021/08/27 08:36:45;;;;;;;3.27;1.75;;;;;;;21.73;59.02;99749.02;2128283;83;28662;-61
2021/08/27 08:39:50;;;;;;;2.40;1.50;;;;;;;21.95;59.04;99734.44;2127939;83;32364;-61
2021/08/27 08:42:54;;;;;;;1.10;1.00;;;;;;;22.21;58.58;99744.42;2101096;83;32958;-61
2021/08/27 08:45:58;;;;;;;1.42;1.05;;;;;;;22.41;57.15;99742.25;2044315;86;29079;-61
2021/08/27 08:49:03;;;;;;;2.00;1.30;;;;;;;22.51;57.20;99740.77;2074400;85;27720;-62
2021/08/27 08:52:08;;;;;;;2.08;1.00;;;;;;;22.70;56.54;99739.10;2070949;83;28727;-63
2021/08/27 08:55:13;;;;;;;1.15;0.98;;;;;;;22.96;55.96;99740.80;2123015;82;31027;-61
2021/08/27 08:58:17;;;;;;;1.07;0.80;;;;;;;23.13;55.83;99747.13;2102734;84;33014;-61
2021/08/27 09:01:20;;;;;;;2.25;1.20;;;;;;;23.26;55.12;99743.05;2102953;84;29150;-62
2021/08/27 09:04:24;;;;;;;2.05;1.00;;;;;;;23.31;54.53;99747.49;2102688;83;27627;-61
2021/08/27 09:07:27;;;;;;;1.50;1.07;;;;;;;23.31;54.20;99748.86;2103148;84;28653;-62
2021/08/27 09:10:30;;;;;;;6.47;1.15;;;;;;;23.33;53.94;99742.17;2102462;84;31955;-64
2021/08/27 09:13:37;;;;;;;0.82;0.80;;;;;;;23.38;53.69;99740.28;2058760;84;34196;-61
2021/08/27 09:16:40;;;;;;;4.75;1.70;;;;;;;23.37;53.63;99745.41;2103494;84;29564;-61
2021/08/27 09:19:56;;;;;;;1.72;1.20;;;;;;;23.34;53.38;99747.12;2100013;84;28111;-62
2021/08/27 09:23:03;;;;;;;1.10;1.00;;;;;;;23.36;52.91;99753.27;2102642;84;29539;-65
2021/08/27 09:26:06;;;;;;;1.90;0.90;;;;;;;23.32;52.84;99751.93;2112805;84;31664;-62
2021/08/27 09:29:26;;;;;;;0.70;0.68;;;;;;;23.17;51.68;99753.94;2112406;84;33193;-62
2021/08/27 09:32:34;;;;;;;3.47;0.80;;;;;;;23.14;52.43;99755.67;2087033;85;29098;-63
2021/08/27 09:36:02;;;;;;;1.12;0.70;;;;;;;23.10;51.73;99751.56;2080745;85;27656;-61
2021/08/27 09:39:11;;;;;;;3.50;1.20;;;;;;;23.06;51.74;99761.12;2079129;85;30221;-61
2021/08/27 09:42:13;;;;;;;1.20;1.10;;;;;;;23.06;51.14;99759.76;2080430;85;31030;-61
2021/08/27 09:45:18;;;;;;;0.88;0.80;;;;;;;23.01;51.27;99759.41;2080151;85;33102;-62
2021/08/27 09:48:21;;;;;;;0.90;0.80;;;;;;;22.99;51.39;99751.40;2075314;85;29860;-61
2021/08/27 09:51:48;;;;;;;1.50;0.80;;;;;;;23.03;51.72;99756.00;2068529;85;27761;-61
2021/08/27 09:54:52;;;;;;;2.12;1.10;;;;;;;23.10;51.58;99756.16;2050406;86;29793;-61
2021/08/27 09:58:10;;;;;;;2.20;0.80;;;;;;;23.18;51.20;99752.91;2100965;84;31269;-62
2021/08/27 10:01:13;;;;;;;3.00;1.30;;;;;;;23.14;50.78;99756.17;2111499;82;32985;-62
2021/08/27 10:04:24;;;;;;;2.20;0.80;;;;;;;23.14;51.16;99754.80;2150839;82;29224;-62
2021/08/27 10:07:41;;;;;;;4.00;0.60;;;;;;;23.09;50.49;99755.33;2150931;82;27661;-63
2021/08/27 10:10:46;;;;;;;0.75;0.70;;;;;;;23.20;50.97;99754.12;2162679;81;27689;-62
2021/08/27 10:13:48;;;;;;;3.85;0.95;;;;;;;23.25;50.37;99754.47;2123668;81;31033;-63
2021/08/27 10:16:51;;;;;;;1.12;0.70;;;;;;;23.28;50.27;99753.30;2133169;81;34195;-64
2021/08/27 10:19:54;;;;;;;1.00;0.85;;;;;;;23.28;49.95;99750.56;2143573;81;29090;-62
2021/08/27 10:22:56;;;;;;;3.35;1.50;;;;;;;23.28;49.89;99749.20;2154094;81;27789;-62
2021/08/27 10:26:14;;;;;;;3.08;1.45;;;;;;;23.25;50.18;99744.06;2163754;82;29952;-63
2021/08/27 10:29:20;;;;;;;1.32;0.75;;;;;;;23.25;49.70;99741.34;2160660;82;31594;-62
2021/08/27 10:32:46;;;;;;;1.92;1.20;;;;;;;23.15;49.97;99745.08;2136526;81;34353;-62
2021/08/27 10:35:52;;;;;;;2.52;1.10;;;;;;;23.04;49.90;99753.61;2123268;83;29206;-62
2021/08/27 10:38:55;;;;;;;4.35;1.10;;;;;;;22.99;49.88;99748.66;2123381;83;27693;-62
2021/08/27 10:41:57;;;;;;;5.23;1.10;;;;;;;22.91;50.34;99741.33;2123543;81;28656;-63
2021/08/27 10:45:00;;;;;;;1.45;1.00;;;;;;;22.87;50.65;99748.67;2122755;83;32210;-62
2021/08/27 10:48:26;;;;;;;1.50;0.90;;;;;;;22.72;50.74;99753.44;2123006;83;34118;-61
2021/08/27 10:51:34;;;;;;;4.37;0.90;;;;;;;22.63;51.63;99754.96;2132943;81;29427;-60
2021/08/27 10:55:11;;;;;;;4.35;1.20;;;;;;;22.47;51.21;99751.19;2164249;82;27675;-61
2021/08/27 10:58:14;;;;;;;2.25;0.90;;;;;;;22.25;51.46;99745.81;2173756;80;28601;-61
2021/08/27 11:01:35;;;;;;;1.42;0.90;;;;;;;22.12;51.91;99744.91;2166366;81;31089;-61
2021/08/27 11:04:44;;;;;;;2.67;0.98;;;;;;;21.99;51.64;99743.51;2115916;84;33852;-61
2021/08/27 11:07:46;;;;;;;1.90;0.80;;;;;;;21.89;52.44;99745.49;2113229;84;30324;-61
2021/08/27 11:11:21;;;;;;;1.80;0.78;;;;;;;21.87;52.67;99733.89;2113563;84;27705;-62
2021/08/27 11:14:24;;;;;;;3.50;1.05;;;;;;;21.91;52.81;99730.34;2110871;83;33459;-64
2021/08/27 11:17:28;;;;;;;3.73;1.03;;;;;;;21.78;52.40;99738.97;2111352;83;31721;-65
2021/08/27 11:20:30;;;;;;;3.58;1.10;;;;;;;;;;2109340;84;33409;-62
2021/08/27 11:23:53;;;;;;;3.47;1.00;;;;;;;21.42;51.98;99739.95;2116558;81;29125;-65
2021/08/27 11:27:11;;;;;;;1.82;1.32;;;;;;;21.34;52.50;99750.29;2120354;83;27582;-62
2021/08/27 11:30:34;;;;;;;1.12;0.78;;;;;;;21.37;53.36;99744.50;2172262;81;27758;-61
2021/08/27 11:33:50;;;;;;;1.47;0.80;;;;;;;21.43;53.03;99743.52;2163922;80;31082;-61
2021/08/27 11:36:55;;;;;;;1.30;0.75;;;;;;;21.36;52.32;99738.70;2163887;82;32959;-61
2021/08/27 11:39:58;;;;;;;1.47;1.03;;;;;;;21.17;52.31;99743.86;2127632;80;29043;-61
2021/08/27 11:43:01;;;;;;;0.72;0.72;;;;;;;20.98;52.05;99739.95;2119883;84;28169;-62
2021/08/27 11:46:04;;;;;;;1.12;0.90;;;;;;;20.89;53.02;99735.81;2115401;83;29545;-62
2021/08/27 11:49:24;;;;;;;0.98;0.80;;;;;;;20.88;52.45;99739.55;2134332;81;31964;-62
2021/08/27 11:52:31;;;;;;;1.27;0.80;;;;;;;20.85;52.94;99732.21;2173179;81;33389;-62
2021/08/27 11:55:43;;;;;;;2.92;0.98;;;;;;;20.79;53.18;99727.73;2154894;81;29017;-62
2021/08/27 11:58:45;;;;;;;5.62;0.90;;;;;;;20.73;52.91;99734.28;2170990;81;27694;-62
2021/08/27 12:01:48;;;;;;;1.45;0.95;;;;;;;20.74;53.21;99732.75;2173971;81;28723;-61
2021/08/27 12:04:59;;;;;;;3.17;0.82;;;;;;;20.70;52.61;99727.78;2138506;81;32237;-63
2021/08/27 12:08:23;;;;;;;3.00;1.00;;;;;;;20.68;52.76;99734.75;2133160;81;32987;-61
2021/08/27 12:11:34;;;;;;;1.57;0.88;;;;;;;20.64;52.68;99738.27;2115920;81;27709;-60
2021/08/27 12:14:49;;;;;;;0.95;0.78;;;;;;;20.63;52.82;99728.39;2119893;83;27677;-64
2021/08/27 12:17:53;;;;;;;;;;;;;;;20.64;52.58;99734.19;2090717;84;28660;-61
2021/08/27 12:20:55;;;;;;;1.87;0.90;;;;;;;20.69;52.79;99729.63;2085058;85;31710;-61
2021/08/27 12:24:10;;;;;;;2.02;1.00;;;;;;;20.78;52.61;99730.11;2080939;85;34151;-61
2021/08/27 12:27:12;;;;;;;3.20;0.98;;;;;;;20.84;52.44;99735.95;2083179;83;28774;-61
2021/08/27 12:30:15;;;;;;;4.42;1.70;;;;;;;20.80;52.65;99735.38;2052702;86;27705;-66
2021/08/27 12:33:19;;;;;;;3.12;1.22;;;;;;;20.77;52.87;99737.05;2052372;86;28100;-61
2021/08/27 12:36:20;;;;;;;1.95;1.02;;;;;;;20.83;52.92;99737.80;2070483;84;31199;-63
2021/08/27 12:39:23;;;;;;;0.80;0.80;;;;;;;20.95;53.05;99741.13;2111965;84;34190;-63
2021/08/27 12:42:25;;;;;;;0.80;0.80;;;;;;;21.03;52.66;99739.83;2084213;84;29067;-61
2021/08/27 12:45:40;;;;;;;1.00;0.78;;;;;;;21.13;52.60;99738.37;2103698;84;27736;-61
2021/08/27 12:48:43;;;;;;;1.15;0.80;;;;;;;21.19;52.25;99738.23;2063484;84;28644;-61
2021/08/27 12:52:02;;;;;;;1.10;0.93;;;;;;;21.30;52.66;99740.72;2038273;87;31935;-62
2021/08/27 12:54:59;;;;;;;1.72;0.70;;;;;;;21.37;52.29;99736.32;2040099;87;33024;-60
2021/08/27 12:58:01;;;;;;;1.52;0.90;;;;;;;21.40;52.19;99737.37;2049612;86;29871;-60
2021/08/27 13:01:25;;;;;;;2.35;1.07;;;;;;;21.39;51.74;99737.02;2044741;84;27664;-61
2021/08/27 13:04:47;;;;;;;1.50;0.93;;;;;;;21.32;52.09;99737.82;2037612;87;29588;-60
2021/08/27 13:07:50;;;;;;;4.05;1.15;;;;;;;21.19;51.75;99741.83;2066340;84;32938;-64
2021/08/27 13:11:10;;;;;;;2.80;0.70;;;;;;;21.08;51.64;99736.13;2063775;83;32939;-66
2021/08/27 13:14:18;;;;;;;0.95;0.60;;;;;;;21.07;51.44;99737.14;2019668;88;29893;-61
2021/08/27 13:17:20;;;;;;;4.12;1.10;;;;;;;21.04;51.60;99738.81;2113863;83;27684;-64
2021/08/27 13:20:25;;;;;;;1.35;0.98;;;;;;;21.07;51.82;99739.86;2145859;81;29358;-65
2021/08/27 13:23:28;;;;;;;1.90;1.12;;;;;;;21.10;51.89;99745.48;2168021;81;31667;-61
2021/08/27 13:26:30;;;;;;;1.47;1.00;;;;;;;21.19;52.33;99749.13;2163687;80;34189;-62
2021/08/27 13:29:33;;;;;;;0.50;0.50;;;;;;;21.31;52.48;99756.05;2162255;80;29103;-66
2021/08/27 13:33:01;;;;;;;3.45;1.07;;;;;;;21.45;52.29;99752.39;2164357;80;28088;-62
2021/08/27 13:36:04;;;;;;;1.72;1.32;;;;;;;21.64;52.53;99756.30;2163682;82;28743;-64
2021/08/27 13:39:12;;;;;;;1.05;0.62;;;;;;;21.90;52.07;99757.27;2163485;81;31088;-64
2021/08/27 13:42:10;;;;;;;1.70;0.90;;;;;;;22.06;51.68;99754.61;2163651;81;33050;-65
2021/08/27 13:45:14;;;;;;;0.95;0.62;;;;;;;22.20;50.83;99749.02;2164001;82;28468;-65
2021/08/27 13:48:16;;;;;;;1.27;1.17;;;;;;;22.24;50.75;99749.03;2164475;82;27621;-66
2021/08/27 13:51:18;;;;;;;1.90;0.82;;;;;;;22.22;50.50;99753.80;2125403;81;28663;-63
2021/08/27 13:54:21;;;;;;;3.15;0.80;;;;;;;22.27;50.54;99755.53;2122643;83;31892;-63
2021/08/27 13:57:23;;;;;;;0.90;0.90;;;;;;;22.31;50.78;99765.10;2121759;82;34051;-66
2021/08/27 14:00:27;;;;;;;0.88;0.80;;;;;;;22.27;50.46;99765.58;2148154;81;29102;-64
2021/08/27 14:03:32;;;;;;;1.67;0.93;;;;;;;21.85;50.29;99753.65;2174035;81;27711;-66
2021/08/27 14:06:37;;;;;;;1.92;1.00;;;;;;;21.85;50.29;99753.65;2167654;81;28230;-62
2021/08/27 14:09:41;;;;;;;2.67;1.10;;;;;;;21.79;50.50;99772.05;2155599;81;31073;-65
2021/08/27 14:12:44;;;;;;;1.27;1.17;;;;;;;21.59;50.84;99776.33;2119739;83;33395;-62
2021/08/27 14:15:50;;;;;;;1.77;1.30;;;;;;;21.46;51.30;99774.54;2119866;84;29159;-63
2021/08/27 14:18:53;;;;;;;2.33;0.80;;;;;;;21.25;51.13;99768.94;2120472;84;28211;-60
2021/08/27 14:21:56;;;;;;;1.82;0.85;;;;;;;21.10;51.21;99774.96;2158826;81;29038;-60
2021/08/27 14:25:00;;;;;;;1.10;0.90;;;;;;;21.04;51.35;99772.02;2163978;82;31061;-62
2021/08/27 14:28:03;;;;;;;1.80;0.83;;;;;;;21.04;51.33;99775.58;2164265;80;32957;-61
2021/08/27 14:31:10;;;;;;;2.00;0.70;;;;;;;21.06;51.95;99771.35;2146953;80;28452;-61
2021/08/27 14:34:12;;;;;;;1.12;0.70;;;;;;;21.08;52.14;99772.05;2120223;83;27747;-62
2021/08/27 14:37:16;;;;;;;1.53;1.03;;;;;;;21.10;51.94;99774.96;2100353;84;28651;-61